sensor_id;sensor_type;location;lat;lon;timestamp;temperature;humidity
1297;DHT22;641;48.492;9.184;2022-08-21T00:01:24;18.90;99.90
1297;DHT22;641;48.492;9.184;2022-08-21T00:03:50;18.90;99.90
1297;DHT22;641;48.492;9.184;2022-08-21T00:06:16;18.90;99.90
1297;DHT22;641;48.492;9.184;2022-08-21T00:08:42;18.90;99.90
1297;DHT22;641;48.492;9.184;2022-08-21T00:11:08;19.30;99.90
1297;DHT22;641;48.492;9.184;2022-08-21T00:13:34;18.90;99.90
1297;DHT22;641;48.492;9.184;2022-08-21T00:16:01;18.90;99.90
1297;DHT22;641;48.492;9.184;2022-08-21T00:18:27;18.80;99.90
1297;DHT22;641;48.492;9.184;2022-08-21T00:20:53;18.80;99.90
1297;DHT22;641;48.492;9.184;2022-08-21T00:23:19;18.70;99.90
1297;DHT22;641;48.492;9.184;2022-08-21T00:25:45;18.70;99.90
1297;DHT22;641;48.492;9.184;2022-08-21T00:28:13;18.60;99.90
1297;DHT22;641;48.492;9.184;2022-08-21T00:30:39;18.60;99.90
1297;DHT22;641;48.492;9.184;2022-08-21T00:33:07;18.60;99.90
1297;DHT22;641;48.492;9.184;2022-08-21T00:35:36;18.60;99.90
1297;DHT22;641;48.492;9.184;2022-08-21T00:38:04;18.60;99.90
1297;DHT22;641;48.492;9.184;2022-08-21T00:40:37;18.60;99.90
1297;DHT22;641;48.492;9.184;2022-08-21T00:43:05;18.50;99.90
1297;DHT22;641;48.492;9.184;2022-08-21T00:45:31;18.60;99.90
1297;DHT22;641;48.492;9.184;2022-08-21T00:47:57;18.60;99.90
1297;DHT22;641;48.492;9.184;2022-08-21T00:50:27;18.80;99.90
1297;DHT22;641;48.492;9.184;2022-08-21T00:52:54;18.50;99.90
1297;DHT22;641;48.492;9.184;2022-08-21T00:55:22;18.50;99.90
1297;DHT22;641;48.492;9.184;2022-08-21T00:57:52;18.50;99.90
1297;DHT22;641;48.492;9.184;2022-08-21T01:00:25;18.50;99.90
1297;DHT22;641;48.492;9.184;2022-08-21T01:02:54;18.50;99.90
1297;DHT22;641;48.492;9.184;2022-08-21T01:05:20;18.40;99.90
1297;DHT22;641;48.492;9.184;2022-08-21T01:07:46;18.30;99.90
1297;DHT22;641;48.492;9.184;2022-08-21T01:10:12;18.20;99.90
1297;DHT22;641;48.492;9.184;2022-08-21T01:12:39;18.20;99.90
1297;DHT22;641;48.492;9.184;2022-08-21T01:15:06;18.20;99.90
1297;DHT22;641;48.492;9.184;2022-08-21T01:17:33;18.10;99.90
1297;DHT22;641;48.492;9.184;2022-08-21T01:20:00;18.10;99.90
1297;DHT22;641;48.492;9.184;2022-08-21T01:22:26;18.00;99.90
1297;DHT22;641;48.492;9.184;2022-08-21T01:24:52;18.20;99.90
1297;DHT22;641;48.492;9.184;2022-08-21T01:27:18;18.00;99.90
1297;DHT22;641;48.492;9.184;2022-08-21T01:32:16;17.90;99.90
1297;DHT22;641;48.492;9.184;2022-08-21T01:34:45;17.90;99.90
1297;DHT22;641;48.492;9.184;2022-08-21T01:37:12;17.80;99.90
1297;DHT22;641;48.492;9.184;2022-08-21T01:39:38;17.70;99.90
1297;DHT22;641;48.492;9.184;2022-08-21T01:42:04;17.80;99.90
1297;DHT22;641;48.492;9.184;2022-08-21T01:44:30;17.80;99.90
1297;DHT22;641;48.492;9.184;2022-08-21T01:46:58;17.80;99.90
1297;DHT22;641;48.492;9.184;2022-08-21T01:49:24;17.70;99.90
1297;DHT22;641;48.492;9.184;2022-08-21T01:51:50;17.70;99.90
1297;DHT22;641;48.492;9.184;2022-08-21T01:54:16;17.70;99.90
1297;DHT22;641;48.492;9.184;2022-08-21T01:56:45;17.70;99.90
1297;DHT22;641;48.492;9.184;2022-08-21T01:59:11;17.70;99.90
1297;DHT22;641;48.492;9.184;2022-08-21T02:01:37;17.70;99.90
1297;DHT22;641;48.492;9.184;2022-08-21T02:04:05;17.70;99.90
1297;DHT22;641;48.492;9.184;2022-08-21T02:06:31;17.70;99.90
1297;DHT22;641;48.492;9.184;2022-08-21T02:08:57;17.70;99.90
1297;DHT22;641;48.492;9.184;2022-08-21T02:11:22;17.70;99.90
1297;DHT22;641;48.492;9.184;2022-08-21T02:13:51;17.60;99.90
1297;DHT22;641;48.492;9.184;2022-08-21T02:16:16;17.60;99.90
1297;DHT22;641;48.492;9.184;2022-08-21T02:18:42;17.60;99.90
1297;DHT22;641;48.492;9.184;2022-08-21T02:21:08;17.50;99.90
1297;DHT22;641;48.492;9.184;2022-08-21T02:23:34;17.70;99.90
1297;DHT22;641;48.492;9.184;2022-08-21T02:26:01;17.50;99.90
1297;DHT22;641;48.492;9.184;2022-08-21T02:28:28;17.50;99.90
1297;DHT22;641;48.492;9.184;2022-08-21T02:30:55;17.50;99.90
1297;DHT22;641;48.492;9.184;2022-08-21T02:33:21;17.50;99.90
1297;DHT22;641;48.492;9.184;2022-08-21T02:35:47;17.50;99.90
1297;DHT22;641;48.492;9.184;2022-08-21T02:38:17;17.50;99.90
1297;DHT22;641;48.492;9.184;2022-08-21T02:40:45;17.50;99.90
1297;DHT22;641;48.492;9.184;2022-08-21T02:43:12;17.50;99.90
1297;DHT22;641;48.492;9.184;2022-08-21T02:45:38;17.40;99.90
1297;DHT22;641;48.492;9.184;2022-08-21T02:48:07;17.30;99.90
1297;DHT22;641;48.492;9.184;2022-08-21T02:50:37;17.30;99.90
1297;DHT22;641;48.492;9.184;2022-08-21T02:53:06;17.30;99.90
1297;DHT22;641;48.492;9.184;2022-08-21T02:55:33;17.30;99.90
1297;DHT22;641;48.492;9.184;2022-08-21T02:57:59;17.70;99.90
1297;DHT22;641;48.492;9.184;2022-08-21T03:00:27;17.20;99.90
1297;DHT22;641;48.492;9.184;2022-08-21T03:02:53;17.20;99.90
1297;DHT22;641;48.492;9.184;2022-08-21T03:05:20;17.20;99.90
1297;DHT22;641;48.492;9.184;2022-08-21T03:07:47;17.20;99.90
1297;DHT22;641;48.492;9.184;2022-08-21T03:10:14;17.20;99.90
1297;DHT22;641;48.492;9.184;2022-08-21T03:12:39;17.20;99.90
1297;DHT22;641;48.492;9.184;2022-08-21T03:15:07;17.20;99.90
1297;DHT22;641;48.492;9.184;2022-08-21T03:17:34;17.20;99.90
1297;DHT22;641;48.492;9.184;2022-08-21T03:20:00;17.10;99.90
1297;DHT22;641;48.492;9.184;2022-08-21T03:22:26;17.30;99.90
1297;DHT22;641;48.492;9.184;2022-08-21T03:24:52;17.10;99.90
1297;DHT22;641;48.492;9.184;2022-08-21T03:27:18;17.00;99.90
1297;DHT22;641;48.492;9.184;2022-08-21T03:29:44;17.00;99.90
1297;DHT22;641;48.492;9.184;2022-08-21T03:32:10;17.00;99.90
1297;DHT22;641;48.492;9.184;2022-08-21T03:34:36;17.00;99.90
1297;DHT22;641;48.492;9.184;2022-08-21T03:37:03;17.00;99.90
1297;DHT22;641;48.492;9.184;2022-08-21T03:39:29;17.00;99.90
1297;DHT22;641;48.492;9.184;2022-08-21T03:41:55;17.00;99.90
1297;DHT22;641;48.492;9.184;2022-08-21T03:44:20;16.90;99.90
1297;DHT22;641;48.492;9.184;2022-08-21T03:46:46;16.90;99.90
1297;DHT22;641;48.492;9.184;2022-08-21T03:49:12;16.90;99.90
1297;DHT22;641;48.492;9.184;2022-08-21T03:51:38;16.80;99.90
1297;DHT22;641;48.492;9.184;2022-08-21T03:54:04;16.80;99.90
1297;DHT22;641;48.492;9.184;2022-08-21T03:56:29;16.70;99.90
1297;DHT22;641;48.492;9.184;2022-08-21T03:58:55;16.70;99.90
1297;DHT22;641;48.492;9.184;2022-08-21T04:01:21;16.70;99.90
1297;DHT22;641;48.492;9.184;2022-08-21T04:03:46;16.70;99.90
1297;DHT22;641;48.492;9.184;2022-08-21T04:06:12;17.20;99.90
1297;DHT22;641;48.492;9.184;2022-08-21T04:08:38;16.60;99.90
1297;DHT22;641;48.492;9.184;2022-08-21T04:11:04;16.60;99.90
1297;DHT22;641;48.492;9.184;2022-08-21T04:13:30;16.70;99.90
1297;DHT22;641;48.492;9.184;2022-08-21T04:15:56;16.70;99.90
1297;DHT22;641;48.492;9.184;2022-08-21T04:18:23;16.70;99.90
1297;DHT22;641;48.492;9.184;2022-08-21T04:20:51;16.70;99.90
1297;DHT22;641;48.492;9.184;2022-08-21T04:23:20;16.70;99.90
1297;DHT22;641;48.492;9.184;2022-08-21T04:25:46;16.70;99.90
1297;DHT22;641;48.492;9.184;2022-08-21T04:28:11;16.70;99.90
1297;DHT22;641;48.492;9.184;2022-08-21T04:30:37;16.60;99.90
1297;DHT22;641;48.492;9.184;2022-08-21T04:33:03;16.60;99.90
1297;DHT22;641;48.492;9.184;2022-08-21T04:35:30;16.60;99.90
1297;DHT22;641;48.492;9.184;2022-08-21T04:37:57;16.50;99.90
1297;DHT22;641;48.492;9.184;2022-08-21T04:40:25;16.60;99.90
1297;DHT22;641;48.492;9.184;2022-08-21T04:42:56;17.00;99.90
1297;DHT22;641;48.492;9.184;2022-08-21T04:47:56;16.60;99.90
1297;DHT22;641;48.492;9.184;2022-08-21T04:50:36;16.60;99.90
1297;DHT22;641;48.492;9.184;2022-08-21T04:53:05;16.70;99.90
1297;DHT22;641;48.492;9.184;2022-08-21T04:55:32;16.70;99.90
1297;DHT22;641;48.492;9.184;2022-08-21T04:57:58;17.10;99.90
1297;DHT22;641;48.492;9.184;2022-08-21T05:00:24;16.80;99.90
1297;DHT22;641;48.492;9.184;2022-08-21T05:02:52;17.10;99.90
1297;DHT22;641;48.492;9.184;2022-08-21T05:05:21;16.80;99.90
1297;DHT22;641;48.492;9.184;2022-08-21T05:07:47;16.90;99.90
1297;DHT22;641;48.492;9.184;2022-08-21T05:10:15;16.90;99.90
1297;DHT22;641;48.492;9.184;2022-08-21T05:12:41;17.00;99.90
1297;DHT22;641;48.492;9.184;2022-08-21T05:15:09;17.00;99.90
1297;DHT22;641;48.492;9.184;2022-08-21T05:17:37;17.00;99.90
1297;DHT22;641;48.492;9.184;2022-08-21T05:20:03;17.10;99.90
1297;DHT22;641;48.492;9.184;2022-08-21T05:22:29;17.10;99.90
1297;DHT22;641;48.492;9.184;2022-08-21T05:24:54;17.60;99.90
1297;DHT22;641;48.492;9.184;2022-08-21T05:27:20;17.50;99.90
1297;DHT22;641;48.492;9.184;2022-08-21T05:29:45;17.30;99.90
1297;DHT22;641;48.492;9.184;2022-08-21T05:32:13;17.70;99.90
1297;DHT22;641;48.492;9.184;2022-08-21T05:34:39;17.40;99.90
1297;DHT22;641;48.492;9.184;2022-08-21T05:37:05;17.50;99.90
1297;DHT22;641;48.492;9.184;2022-08-21T05:39:31;17.60;99.90
1297;DHT22;641;48.492;9.184;2022-08-21T05:41:57;18.00;99.90
1297;DHT22;641;48.492;9.184;2022-08-21T05:44:22;17.60;99.90
1297;DHT22;641;48.492;9.184;2022-08-21T05:46:48;17.60;99.90
1297;DHT22;641;48.492;9.184;2022-08-21T05:49:14;17.60;99.90
1297;DHT22;641;48.492;9.184;2022-08-21T05:51:40;17.80;99.90
1297;DHT22;641;48.492;9.184;2022-08-21T05:54:06;17.50;99.90
1297;DHT22;641;48.492;9.184;2022-08-21T05:56:32;17.60;99.90
1297;DHT22;641;48.492;9.184;2022-08-21T05:58:58;17.60;99.90
1297;DHT22;641;48.492;9.184;2022-08-21T06:03:50;17.70;99.90
1297;DHT22;641;48.492;9.184;2022-08-21T06:06:15;17.80;99.90
1297;DHT22;641;48.492;9.184;2022-08-21T06:08:41;17.80;99.90
1297;DHT22;641;48.492;9.184;2022-08-21T06:11:07;17.60;99.90
1297;DHT22;641;48.492;9.184;2022-08-21T06:13:34;17.60;99.90
1297;DHT22;641;48.492;9.184;2022-08-21T06:16:11;17.60;99.90
1297;DHT22;641;48.492;9.184;2022-08-21T06:18:38;17.70;99.90
1297;DHT22;641;48.492;9.184;2022-08-21T06:21:05;18.10;99.90
1297;DHT22;641;48.492;9.184;2022-08-21T06:23:31;17.90;99.90
1297;DHT22;641;48.492;9.184;2022-08-21T06:25:57;17.90;99.90
1297;DHT22;641;48.492;9.184;2022-08-21T06:28:23;17.90;99.90
1297;DHT22;641;48.492;9.184;2022-08-21T06:30:49;17.90;99.90
1297;DHT22;641;48.492;9.184;2022-08-21T06:33:15;17.90;99.90
1297;DHT22;641;48.492;9.184;2022-08-21T06:35:40;18.00;99.90
1297;DHT22;641;48.492;9.184;2022-08-21T06:40:32;18.00;99.90
1297;DHT22;641;48.492;9.184;2022-08-21T06:43:04;18.00;99.90
1297;DHT22;641;48.492;9.184;2022-08-21T06:45:30;18.00;99.90
1297;DHT22;641;48.492;9.184;2022-08-21T06:47:55;18.10;99.90
1297;DHT22;641;48.492;9.184;2022-08-21T06:50:21;18.10;99.90
1297;DHT22;641;48.492;9.184;2022-08-21T06:52:47;18.20;99.90
1297;DHT22;641;48.492;9.184;2022-08-21T06:55:13;18.50;99.90
1297;DHT22;641;48.492;9.184;2022-08-21T06:57:38;18.80;99.90
1297;DHT22;641;48.492;9.184;2022-08-21T07:00:05;18.40;99.90
1297;DHT22;641;48.492;9.184;2022-08-21T07:02:32;18.60;99.90
1297;DHT22;641;48.492;9.184;2022-08-21T07:04:59;19.20;99.90
1297;DHT22;641;48.492;9.184;2022-08-21T07:07:24;18.80;99.90
1297;DHT22;641;48.492;9.184;2022-08-21T07:09:50;18.90;99.90
1297;DHT22;641;48.492;9.184;2022-08-21T07:12:16;19.00;99.90
1297;DHT22;641;48.492;9.184;2022-08-21T07:14:41;19.10;99.90
1297;DHT22;641;48.492;9.184;2022-08-21T07:17:08;19.30;99.90
1297;DHT22;641;48.492;9.184;2022-08-21T07:19:33;19.40;99.90
1297;DHT22;641;48.492;9.184;2022-08-21T07:22:01;19.60;99.90
1297;DHT22;641;48.492;9.184;2022-08-21T07:24:27;19.80;99.90
1297;DHT22;641;48.492;9.184;2022-08-21T07:26:53;19.80;99.90
1297;DHT22;641;48.492;9.184;2022-08-21T07:29:19;19.90;99.90
1297;DHT22;641;48.492;9.184;2022-08-21T07:31:44;20.30;99.90
1297;DHT22;641;48.492;9.184;2022-08-21T07:34:10;20.20;99.90
1297;DHT22;641;48.492;9.184;2022-08-21T07:36:36;20.20;99.90
1297;DHT22;641;48.492;9.184;2022-08-21T07:39:01;20.20;99.90
1297;DHT22;641;48.492;9.184;2022-08-21T07:41:28;20.40;99.90
1297;DHT22;641;48.492;9.184;2022-08-21T07:43:57;20.50;99.90
1297;DHT22;641;48.492;9.184;2022-08-21T07:46:24;20.20;99.90
1297;DHT22;641;48.492;9.184;2022-08-21T07:48:50;20.10;99.90
1297;DHT22;641;48.492;9.184;2022-08-21T07:51:17;20.40;99.90
1297;DHT22;641;48.492;9.184;2022-08-21T07:53:49;21.00;99.90
1297;DHT22;641;48.492;9.184;2022-08-21T07:56:15;20.80;99.90
1297;DHT22;641;48.492;9.184;2022-08-21T07:58:41;20.90;99.90
1297;DHT22;641;48.492;9.184;2022-08-21T08:01:06;21.00;99.90
1297;DHT22;641;48.492;9.184;2022-08-21T08:03:32;21.10;99.90
1297;DHT22;641;48.492;9.184;2022-08-21T08:05:58;21.10;99.90
1297;DHT22;641;48.492;9.184;2022-08-21T08:08:24;21.00;99.90
1297;DHT22;641;48.492;9.184;2022-08-21T08:10:50;21.10;99.90
1297;DHT22;641;48.492;9.184;2022-08-21T08:13:17;21.20;99.90
1297;DHT22;641;48.492;9.184;2022-08-21T08:15:42;21.40;99.90
1297;DHT22;641;48.492;9.184;2022-08-21T08:18:08;21.80;99.90
1297;DHT22;641;48.492;9.184;2022-08-21T08:20:33;21.40;99.90
1297;DHT22;641;48.492;9.184;2022-08-21T08:22:59;21.50;99.90
1297;DHT22;641;48.492;9.184;2022-08-21T08:25:26;21.70;99.90
1297;DHT22;641;48.492;9.184;2022-08-21T08:27:52;21.70;99.40
1297;DHT22;641;48.492;9.184;2022-08-21T08:30:19;21.80;99.40
1297;DHT22;641;48.492;9.184;2022-08-21T08:32:45;21.90;99.10
1297;DHT22;641;48.492;9.184;2022-08-21T08:35:11;21.80;98.90
1297;DHT22;641;48.492;9.184;2022-08-21T08:37:38;22.00;99.20
1297;DHT22;641;48.492;9.184;2022-08-21T08:40:54;22.10;98.60
1297;DHT22;641;48.492;9.184;2022-08-21T08:42:54;22.20;98.90
1297;DHT22;641;48.492;9.184;2022-08-21T08:45:21;22.40;99.60
1297;DHT22;641;48.492;9.184;2022-08-21T08:48:01;22.50;98.30
1297;DHT22;641;48.492;9.184;2022-08-21T08:50:40;22.60;98.90
1297;DHT22;641;48.492;9.184;2022-08-21T08:53:12;22.80;98.10
1297;DHT22;641;48.492;9.184;2022-08-21T08:55:43;22.70;98.30
1297;DHT22;641;48.492;9.184;2022-08-21T08:58:16;23.10;97.30
1297;DHT22;641;48.492;9.184;2022-08-21T09:00:47;23.00;97.00
1297;DHT22;641;48.492;9.184;2022-08-21T09:03:15;23.10;96.20
1297;DHT22;641;48.492;9.184;2022-08-21T09:05:55;23.10;96.50
1297;DHT22;641;48.492;9.184;2022-08-21T09:08:46;23.10;96.40
1297;DHT22;641;48.492;9.184;2022-08-21T09:11:57;23.10;97.10
1297;DHT22;641;48.492;9.184;2022-08-21T09:27:36;23.70;96.00
1297;DHT22;641;48.492;9.184;2022-08-21T09:30:05;23.80;95.10
1297;DHT22;641;48.492;9.184;2022-08-21T09:32:33;23.80;94.90
1297;DHT22;641;48.492;9.184;2022-08-21T09:40:39;23.90;93.90
1297;DHT22;641;48.492;9.184;2022-08-21T09:45:39;24.00;93.90
1297;DHT22;641;48.492;9.184;2022-08-21T09:48:18;24.10;95.10
1297;DHT22;641;48.492;9.184;2022-08-21T09:50:44;24.30;94.50
1297;DHT22;641;48.492;9.184;2022-08-21T09:53:24;24.50;94.40
1297;DHT22;641;48.492;9.184;2022-08-21T09:55:59;24.60;92.60
1297;DHT22;641;48.492;9.184;2022-08-21T09:58:47;24.60;93.00
1297;DHT22;641;48.492;9.184;2022-08-21T10:01:19;24.50;92.60
1297;DHT22;641;48.492;9.184;2022-08-21T10:03:46;24.50;93.20
1297;DHT22;641;48.492;9.184;2022-08-21T10:06:25;24.60;94.00
1297;DHT22;641;48.492;9.184;2022-08-21T10:08:51;24.80;93.20
1297;DHT22;641;48.492;9.184;2022-08-21T10:11:17;24.80;93.40
1297;DHT22;641;48.492;9.184;2022-08-21T10:19:06;25.10;93.00
1297;DHT22;641;48.492;9.184;2022-08-21T10:27:33;25.00;91.40
1297;DHT22;641;48.492;9.184;2022-08-21T10:30:07;24.90;91.30
1297;DHT22;641;48.492;9.184;2022-08-21T10:32:58;24.80;90.90
1297;DHT22;641;48.492;9.184;2022-08-21T10:35:29;24.80;91.00
1297;DHT22;641;48.492;9.184;2022-08-21T10:48:29;25.40;91.10
1297;DHT22;641;48.492;9.184;2022-08-21T10:51:27;25.40;91.20
1297;DHT22;641;48.492;9.184;2022-08-21T10:54:19;25.40;90.60
1297;DHT22;641;48.492;9.184;2022-08-21T10:56:47;25.70;89.10
1297;DHT22;641;48.492;9.184;2022-08-21T10:59:25;25.60;87.90
1297;DHT22;641;48.492;9.184;2022-08-21T11:05:11;25.40;88.10
1297;DHT22;641;48.492;9.184;2022-08-21T11:07:33;25.50;90.50
1297;DHT22;641;48.492;9.184;2022-08-21T11:10:16;25.70;88.10
1297;DHT22;641;48.492;9.184;2022-08-21T11:12:47;25.70;90.40
1297;DHT22;641;48.492;9.184;2022-08-21T11:17:50;25.80;90.60
1297;DHT22;641;48.492;9.184;2022-08-21T11:20:33;26.10;90.50
1297;DHT22;641;48.492;9.184;2022-08-21T11:23:19;26.30;90.50
1297;DHT22;641;48.492;9.184;2022-08-21T11:25:51;26.40;89.80
1297;DHT22;641;48.492;9.184;2022-08-21T11:28:28;26.40;86.00
1297;DHT22;641;48.492;9.184;2022-08-21T11:33:30;26.30;89.90
1297;DHT22;641;48.492;9.184;2022-08-21T11:36:02;26.40;89.30
1297;DHT22;641;48.492;9.184;2022-08-21T11:38:40;26.50;85.90
1297;DHT22;641;48.492;9.184;2022-08-21T11:47:54;26.50;88.60
1297;DHT22;641;48.492;9.184;2022-08-21T11:52:38;26.00;87.20
1297;DHT22;641;48.492;9.184;2022-08-21T11:55:12;26.30;87.50
1297;DHT22;641;48.492;9.184;2022-08-21T11:57:58;26.30;86.30
1297;DHT22;641;48.492;9.184;2022-08-21T12:00:29;26.40;86.00
1297;DHT22;641;48.492;9.184;2022-08-21T12:02:58;26.50;86.20
1297;DHT22;641;48.492;9.184;2022-08-21T12:05:36;26.20;84.10
1297;DHT22;641;48.492;9.184;2022-08-21T12:08:10;26.40;84.90
1297;DHT22;641;48.492;9.184;2022-08-21T12:10:47;26.60;88.30
1297;DHT22;641;48.492;9.184;2022-08-21T12:13:27;26.90;87.80
1297;DHT22;641;48.492;9.184;2022-08-21T12:16:29;26.90;82.20
1297;DHT22;641;48.492;9.184;2022-08-21T12:19:08;26.70;84.70
1297;DHT22;641;48.492;9.184;2022-08-21T12:21:48;26.80;85.60
1297;DHT22;641;48.492;9.184;2022-08-21T12:26:51;26.40;86.90
1297;DHT22;641;48.492;9.184;2022-08-21T12:29:30;26.50;85.10
1297;DHT22;641;48.492;9.184;2022-08-21T12:32:03;26.50;85.70
1297;DHT22;641;48.492;9.184;2022-08-21T12:34:38;26.70;86.30
1297;DHT22;641;48.492;9.184;2022-08-21T12:37:18;26.50;82.50
1297;DHT22;641;48.492;9.184;2022-08-21T12:39:48;26.50;82.80
1297;DHT22;641;48.492;9.184;2022-08-21T12:42:24;26.20;83.30
1297;DHT22;641;48.492;9.184;2022-08-21T12:44:55;26.10;85.00
1297;DHT22;641;48.492;9.184;2022-08-21T12:47:25;26.30;82.30
1297;DHT22;641;48.492;9.184;2022-08-21T12:50:05;26.40;85.00
1297;DHT22;641;48.492;9.184;2022-08-21T12:53:09;26.70;83.50
1297;DHT22;641;48.492;9.184;2022-08-21T12:55:32;27.00;83.40
1297;DHT22;641;48.492;9.184;2022-08-21T12:57:58;26.90;82.70
1297;DHT22;641;48.492;9.184;2022-08-21T13:00:26;26.90;83.20
1297;DHT22;641;48.492;9.184;2022-08-21T13:02:53;27.10;82.30
1297;DHT22;641;48.492;9.184;2022-08-21T13:07:50;27.10;82.70
1297;DHT22;641;48.492;9.184;2022-08-21T13:10:28;27.20;82.10
1297;DHT22;641;48.492;9.184;2022-08-21T13:12:58;27.40;78.70
1297;DHT22;641;48.492;9.184;2022-08-21T13:15:36;27.40;82.50
1297;DHT22;641;48.492;9.184;2022-08-21T13:18:04;27.20;78.90
1297;DHT22;641;48.492;9.184;2022-08-21T13:20:32;27.10;79.40
1297;DHT22;641;48.492;9.184;2022-08-21T13:23:00;27.20;81.50
1297;DHT22;641;48.492;9.184;2022-08-21T13:25:29;27.20;78.90
1297;DHT22;641;48.492;9.184;2022-08-21T13:28:09;27.30;80.20
1297;DHT22;641;48.492;9.184;2022-08-21T13:30:53;27.20;79.30
1297;DHT22;641;48.492;9.184;2022-08-21T13:33:22;27.30;81.70
1297;DHT22;641;48.492;9.184;2022-08-21T13:38:33;27.40;78.00
1297;DHT22;641;48.492;9.184;2022-08-21T13:41:21;27.40;77.40
1297;DHT22;641;48.492;9.184;2022-08-21T13:43:58;27.50;78.10
1297;DHT22;641;48.492;9.184;2022-08-21T13:46:26;27.40;78.30
1297;DHT22;641;48.492;9.184;2022-08-21T13:48:54;27.40;78.30
1297;DHT22;641;48.492;9.184;2022-08-21T13:51:20;27.40;78.80
1297;DHT22;641;48.492;9.184;2022-08-21T13:53:49;27.50;78.70
1297;DHT22;641;48.492;9.184;2022-08-21T13:56:27;27.50;77.60
1297;DHT22;641;48.492;9.184;2022-08-21T13:58:54;27.70;79.80
1297;DHT22;641;48.492;9.184;2022-08-21T14:01:28;27.70;77.10
1297;DHT22;641;48.492;9.184;2022-08-21T14:04:01;27.70;78.60
1297;DHT22;641;48.492;9.184;2022-08-21T14:06:32;27.80;80.10
1297;DHT22;641;48.492;9.184;2022-08-21T14:09:00;27.80;76.50
1297;DHT22;641;48.492;9.184;2022-08-21T14:11:31;27.90;76.60
1297;DHT22;641;48.492;9.184;2022-08-21T14:14:01;28.00;75.80
1297;DHT22;641;48.492;9.184;2022-08-21T14:16:44;28.00;75.60
1297;DHT22;641;48.492;9.184;2022-08-21T14:19:20;28.10;76.50
1297;DHT22;641;48.492;9.184;2022-08-21T14:21:46;28.10;76.20
1297;DHT22;641;48.492;9.184;2022-08-21T14:24:25;28.20;75.10
1297;DHT22;641;48.492;9.184;2022-08-21T14:26:56;28.10;73.60
1297;DHT22;641;48.492;9.184;2022-08-21T14:29:26;28.00;74.30
1297;DHT22;641;48.492;9.184;2022-08-21T14:31:56;27.90;73.30
1297;DHT22;641;48.492;9.184;2022-08-21T14:34:24;27.60;72.80
1297;DHT22;641;48.492;9.184;2022-08-21T14:36:51;27.20;76.00
1297;DHT22;641;48.492;9.184;2022-08-21T14:39:17;27.10;72.90
1297;DHT22;641;48.492;9.184;2022-08-21T14:41:44;27.10;75.40
1297;DHT22;641;48.492;9.184;2022-08-21T14:44:14;26.90;74.00
1297;DHT22;641;48.492;9.184;2022-08-21T14:46:40;27.00;73.40
1297;DHT22;641;48.492;9.184;2022-08-21T14:49:05;27.20;73.50
1297;DHT22;641;48.492;9.184;2022-08-21T14:51:31;27.30;71.60
1297;DHT22;641;48.492;9.184;2022-08-21T14:53:57;27.30;74.70
1297;DHT22;641;48.492;9.184;2022-08-21T14:56:22;27.60;75.20
1297;DHT22;641;48.492;9.184;2022-08-21T14:58:50;27.70;73.20
1297;DHT22;641;48.492;9.184;2022-08-21T15:01:21;27.90;76.80
1297;DHT22;641;48.492;9.184;2022-08-21T15:03:47;28.10;77.60
1297;DHT22;641;48.492;9.184;2022-08-21T15:06:14;28.30;76.20
1297;DHT22;641;48.492;9.184;2022-08-21T15:08:41;28.20;71.10
1297;DHT22;641;48.492;9.184;2022-08-21T15:11:16;28.20;72.90
1297;DHT22;641;48.492;9.184;2022-08-21T15:13:42;28.30;72.40
1297;DHT22;641;48.492;9.184;2022-08-21T15:16:10;28.40;72.80
1297;DHT22;641;48.492;9.184;2022-08-21T15:18:36;28.60;74.40
1297;DHT22;641;48.492;9.184;2022-08-21T15:21:01;28.70;74.50
1297;DHT22;641;48.492;9.184;2022-08-21T15:23:27;28.90;71.00
1297;DHT22;641;48.492;9.184;2022-08-21T15:25:53;29.00;70.80
1297;DHT22;641;48.492;9.184;2022-08-21T15:28:19;29.40;69.80
1297;DHT22;641;48.492;9.184;2022-08-21T15:30:46;29.80;71.50
1297;DHT22;641;48.492;9.184;2022-08-21T15:33:13;30.30;70.30
1297;DHT22;641;48.492;9.184;2022-08-21T15:35:39;30.70;68.60
1297;DHT22;641;48.492;9.184;2022-08-21T15:38:05;31.20;65.10
1297;DHT22;641;48.492;9.184;2022-08-21T15:43:01;31.60;63.90
1297;DHT22;641;48.492;9.184;2022-08-21T15:45:28;32.00;65.00
1297;DHT22;641;48.492;9.184;2022-08-21T15:47:54;32.40;64.90
1297;DHT22;641;48.492;9.184;2022-08-21T15:50:21;32.70;61.60
1297;DHT22;641;48.492;9.184;2022-08-21T15:52:47;32.90;63.80
1297;DHT22;641;48.492;9.184;2022-08-21T15:55:13;33.10;61.90
1297;DHT22;641;48.492;9.184;2022-08-21T15:57:45;33.00;59.60
1297;DHT22;641;48.492;9.184;2022-08-21T16:00:18;32.70;59.10
1297;DHT22;641;48.492;9.184;2022-08-21T16:02:47;32.60;60.00
1297;DHT22;641;48.492;9.184;2022-08-21T16:05:14;32.40;59.20
1297;DHT22;641;48.492;9.184;2022-08-21T16:07:42;32.70;59.60
1297;DHT22;641;48.492;9.184;2022-08-21T16:10:08;33.00;60.70
1297;DHT22;641;48.492;9.184;2022-08-21T16:12:40;32.80;56.80
1297;DHT22;641;48.492;9.184;2022-08-21T16:15:09;32.10;58.80
1297;DHT22;641;48.492;9.184;2022-08-21T16:17:37;31.60;59.50
1297;DHT22;641;48.492;9.184;2022-08-21T16:20:07;31.90;63.50
1297;DHT22;641;48.492;9.184;2022-08-21T16:22:33;32.50;57.80
1297;DHT22;641;48.492;9.184;2022-08-21T16:24:59;33.10;58.40
1297;DHT22;641;48.492;9.184;2022-08-21T16:27:24;33.20;58.90
1297;DHT22;641;48.492;9.184;2022-08-21T16:29:50;33.50;58.50
1297;DHT22;641;48.492;9.184;2022-08-21T16:32:16;33.70;57.90
1297;DHT22;641;48.492;9.184;2022-08-21T16:34:46;33.20;57.30
1297;DHT22;641;48.492;9.184;2022-08-21T16:37:13;33.30;57.30
1297;DHT22;641;48.492;9.184;2022-08-21T16:39:39;33.30;56.50
1297;DHT22;641;48.492;9.184;2022-08-21T16:42:05;33.40;57.80
1297;DHT22;641;48.492;9.184;2022-08-21T16:44:31;33.50;57.90
1297;DHT22;641;48.492;9.184;2022-08-21T16:46:58;33.60;56.10
1297;DHT22;641;48.492;9.184;2022-08-21T16:49:24;33.50;56.70
1297;DHT22;641;48.492;9.184;2022-08-21T16:51:50;33.40;55.90
1297;DHT22;641;48.492;9.184;2022-08-21T16:54:15;32.60;56.60
1297;DHT22;641;48.492;9.184;2022-08-21T16:56:41;32.10;58.70
1297;DHT22;641;48.492;9.184;2022-08-21T16:59:07;31.80;58.50
1297;DHT22;641;48.492;9.184;2022-08-21T17:01:33;31.50;58.80
1297;DHT22;641;48.492;9.184;2022-08-21T17:04:00;31.50;59.20
1297;DHT22;641;48.492;9.184;2022-08-21T17:06:26;31.30;59.90
1297;DHT22;641;48.492;9.184;2022-08-21T17:08:51;30.60;60.60
1297;DHT22;641;48.492;9.184;2022-08-21T17:11:42;29.80;61.20
1297;DHT22;641;48.492;9.184;2022-08-21T17:14:17;29.20;63.50
1297;DHT22;641;48.492;9.184;2022-08-21T17:16:47;28.40;64.50
1297;DHT22;641;48.492;9.184;2022-08-21T17:19:14;27.90;64.70
1297;DHT22;641;48.492;9.184;2022-08-21T17:21:40;27.30;67.30
1297;DHT22;641;48.492;9.184;2022-08-21T17:24:05;27.10;67.00
1297;DHT22;641;48.492;9.184;2022-08-21T17:26:31;26.90;66.50
1297;DHT22;641;48.492;9.184;2022-08-21T17:28:58;26.90;67.30
1297;DHT22;641;48.492;9.184;2022-08-21T17:31:24;27.10;68.50
1297;DHT22;641;48.492;9.184;2022-08-21T17:33:51;27.20;67.90
1297;DHT22;641;48.492;9.184;2022-08-21T17:36:23;27.30;68.50
1297;DHT22;641;48.492;9.184;2022-08-21T17:38:49;27.10;66.00
1297;DHT22;641;48.492;9.184;2022-08-21T17:41:15;26.80;66.90
1297;DHT22;641;48.492;9.184;2022-08-21T17:43:41;26.90;67.60
1297;DHT22;641;48.492;9.184;2022-08-21T17:46:09;26.80;68.70
1297;DHT22;641;48.492;9.184;2022-08-21T17:48:38;26.70;69.00